EWG4PZ EKCH-EDDL
Flight info
| Callsign | EWG4PZ |
|---|---|
| Flight time | 0h 56m |
| Altitude | 38000 |
| Route | NEXEN T503 GIMRU DCT MICOS DCT KEGAB DCT DENOL T851 HALME HALME1A |
| Aircraft | A319/M-SDE3FGHIRWY/LB1 |
Departure
| Time | 2026-05-04 19:46 |
|---|---|
| Airport | Copenhagen Kastrup Airport (EKCH) |
Arrival
| Time | 2026-05-04 20:43 |
|---|---|
| Airport | Düsseldorf Airport (EDDL) |
| Time | Latitude | Longitude | Altitude | Speed | Heading |
|---|---|---|---|---|---|
| 2026-05-04 19:20 | 55.62879 | 12.63934 | 17 ft | 0 kts | 12° |
| 2026-05-04 19:35 | 55.62865 | 12.63929 | 17 ft | 3 kts | 12° |
| 2026-05-04 19:35 | 55.62845 | 12.63919 | 17 ft | 4 kts | 41° |
| 2026-05-04 19:35 | 55.62835 | 12.63884 | 21 ft | 4 kts | 101° |
| 2026-05-04 19:36 | 55.62835 | 12.63885 | 21 ft | 0 kts | 104° |
| 2026-05-04 19:38 | 55.62831 | 12.63910 | 17 ft | 5 kts | 104° |
| 2026-05-04 19:39 | 55.62799 | 12.63957 | 17 ft | 9 kts | 167° |
| 2026-05-04 19:39 | 55.62733 | 12.63911 | 17 ft | 11 kts | 213° |
| 2026-05-04 19:39 | 55.62661 | 12.63851 | 17 ft | 12 kts | 176° |
| 2026-05-04 19:39 | 55.62612 | 12.63958 | 17 ft | 12 kts | 125° |
| 2026-05-04 19:40 | 55.62573 | 12.64065 | 17 ft | 10 kts | 123° |
| 2026-05-04 19:40 | 55.62532 | 12.64174 | 17 ft | 11 kts | 123° |
| 2026-05-04 19:40 | 55.62499 | 12.64263 | 17 ft | 8 kts | 123° |
| 2026-05-04 19:40 | 55.62463 | 12.64349 | 17 ft | 9 kts | 129° |
| 2026-05-04 19:41 | 55.62421 | 12.64441 | 17 ft | 10 kts | 137° |
| 2026-05-04 19:41 | 55.62355 | 12.64434 | 17 ft | 10 kts | 195° |
| 2026-05-04 19:41 | 55.62336 | 12.64425 | 17 ft | 0 kts | 195° |
| 2026-05-04 19:42 | 55.62320 | 12.64417 | 17 ft | 5 kts | 195° |
| 2026-05-04 19:43 | 55.62262 | 12.64389 | 16 ft | 12 kts | 195° |
| 2026-05-04 19:43 | 55.62176 | 12.64327 | 16 ft | 14 kts | 205° |
| 2026-05-04 19:43 | 55.62092 | 12.64257 | 19 ft | 10 kts | 205° |
| 2026-05-04 19:43 | 55.62031 | 12.64205 | 17 ft | 10 kts | 205° |
| 2026-05-04 19:44 | 55.61966 | 12.64151 | 17 ft | 11 kts | 205° |
| 2026-05-04 19:44 | 55.61903 | 12.64098 | 17 ft | 7 kts | 205° |
| 2026-05-04 19:44 | 55.61852 | 12.64068 | 17 ft | 8 kts | 184° |
| 2026-05-04 19:44 | 55.61783 | 12.64076 | 18 ft | 12 kts | 176° |
| 2026-05-04 19:45 | 55.61694 | 12.64086 | 19 ft | 11 kts | 176° |
| 2026-05-04 19:45 | 55.61631 | 12.64086 | 21 ft | 8 kts | 191° |
| 2026-05-04 19:45 | 55.61584 | 12.64009 | 20 ft | 12 kts | 224° |
| 2026-05-04 19:45 | 55.61429 | 12.63768 | 19 ft | 67 kts | 219° |
| 2026-05-04 19:46 | 55.60868 | 12.62902 | 19 ft | 143 kts | 221° |
| 2026-05-04 19:46 | 55.59992 | 12.61572 | 272 ft | 176 kts | 222° |
| 2026-05-04 19:46 | 55.59044 | 12.60128 | 982 ft | 185 kts | 223° |
| 2026-05-04 19:46 | 55.58054 | 12.58638 | 1741 ft | 190 kts | 224° |
| 2026-05-04 19:47 | 55.57044 | 12.57063 | 2454 ft | 201 kts | 225° |
| 2026-05-04 19:47 | 55.55902 | 12.55499 | 3198 ft | 215 kts | 217° |
| 2026-05-04 19:47 | 55.54625 | 12.53946 | 3924 ft | 229 kts | 217° |
| 2026-05-04 19:47 | 55.53296 | 12.52317 | 4695 ft | 245 kts | 217° |
| 2026-05-04 19:48 | 55.51852 | 12.50543 | 5470 ft | 258 kts | 217° |
| 2026-05-04 19:48 | 55.50368 | 12.48731 | 6502 ft | 261 kts | 218° |
| 2026-05-04 19:48 | 55.48856 | 12.46888 | 7519 ft | 264 kts | 218° |
| 2026-05-04 19:48 | 55.47338 | 12.45036 | 8516 ft | 268 kts | 218° |
| 2026-05-04 19:49 | 55.45795 | 12.43155 | 9522 ft | 271 kts | 218° |
| 2026-05-04 19:49 | 55.44221 | 12.41235 | 10283 ft | 284 kts | 218° |
| 2026-05-04 19:49 | 55.42531 | 12.39164 | 10641 ft | 308 kts | 218° |
| 2026-05-04 19:49 | 55.40703 | 12.36923 | 10930 ft | 332 kts | 218° |
| 2026-05-04 19:50 | 55.38770 | 12.34558 | 11134 ft | 355 kts | 218° |
| 2026-05-04 19:50 | 55.36671 | 12.31999 | 11332 ft | 376 kts | 217° |
| 2026-05-04 19:50 | 55.34488 | 12.29350 | 11885 ft | 383 kts | 217° |
| 2026-05-04 19:50 | 55.32278 | 12.26682 | 12589 ft | 387 kts | 217° |
| 2026-05-04 19:51 | 55.30043 | 12.23995 | 13317 ft | 390 kts | 217° |
| 2026-05-04 19:51 | 55.27788 | 12.21288 | 14011 ft | 393 kts | 217° |
| 2026-05-04 19:51 | 55.25536 | 12.18581 | 14571 ft | 397 kts | 217° |
| 2026-05-04 19:51 | 55.23248 | 12.15827 | 15128 ft | 401 kts | 217° |
| 2026-05-04 19:52 | 55.20940 | 12.13049 | 15683 ft | 404 kts | 217° |
| 2026-05-04 19:52 | 55.18622 | 12.10218 | 16221 ft | 407 kts | 218° |
| 2026-05-04 19:52 | 55.16318 | 12.07306 | 16724 ft | 410 kts | 219° |
| 2026-05-04 19:52 | 55.14015 | 12.04331 | 17227 ft | 413 kts | 219° |
| 2026-05-04 19:53 | 55.11700 | 12.01318 | 17736 ft | 416 kts | 219° |
| 2026-05-04 19:53 | 55.09363 | 11.98288 | 18227 ft | 419 kts | 219° |
| 2026-05-04 19:53 | 55.07008 | 11.95258 | 18652 ft | 422 kts | 219° |
| 2026-05-04 19:53 | 55.04662 | 11.92264 | 19083 ft | 424 kts | 219° |
| 2026-05-04 19:54 | 55.02260 | 11.89213 | 19508 ft | 427 kts | 219° |
| 2026-05-04 19:54 | 54.99855 | 11.86167 | 19923 ft | 429 kts | 219° |
| 2026-05-04 19:54 | 54.97434 | 11.83113 | 20321 ft | 431 kts | 218° |
| 2026-05-04 19:54 | 54.95003 | 11.80049 | 20684 ft | 433 kts | 218° |
| 2026-05-04 19:55 | 54.92563 | 11.76974 | 21107 ft | 433 kts | 219° |
| 2026-05-04 19:55 | 54.90109 | 11.73881 | 21520 ft | 434 kts | 219° |
| 2026-05-04 19:55 | 54.87660 | 11.70789 | 21893 ft | 436 kts | 219° |
| 2026-05-04 19:55 | 54.85199 | 11.67685 | 22256 ft | 438 kts | 219° |
| 2026-05-04 19:56 | 54.83563 | 11.65628 | 22494 ft | 439 kts | 219° |
| 2026-05-04 19:56 | 54.80240 | 11.61467 | 22962 ft | 441 kts | 219° |
| 2026-05-04 19:56 | 54.78587 | 11.59402 | 23184 ft | 442 kts | 219° |
| 2026-05-04 19:56 | 54.76087 | 11.56281 | 23511 ft | 444 kts | 219° |
| 2026-05-04 19:57 | 54.73575 | 11.53152 | 23792 ft | 446 kts | 219° |
| 2026-05-04 19:57 | 54.71049 | 11.50011 | 24060 ft | 446 kts | 220° |
| 2026-05-04 19:57 | 54.68531 | 11.46888 | 24400 ft | 445 kts | 220° |
| 2026-05-04 19:57 | 54.66007 | 11.43762 | 24706 ft | 445 kts | 220° |
| 2026-05-04 19:58 | 54.63496 | 11.40652 | 25116 ft | 443 kts | 220° |
| 2026-05-04 19:58 | 54.60992 | 11.37554 | 25554 ft | 440 kts | 220° |
| 2026-05-04 19:58 | 54.58547 | 11.34532 | 25998 ft | 438 kts | 220° |
| 2026-05-04 19:58 | 54.56073 | 11.31475 | 26446 ft | 436 kts | 220° |
| 2026-05-04 19:59 | 54.53616 | 11.28448 | 26909 ft | 433 kts | 220° |
| 2026-05-04 19:59 | 54.51141 | 11.25489 | 27401 ft | 432 kts | 218° |
| 2026-05-04 19:59 | 54.48632 | 11.22658 | 27898 ft | 430 kts | 217° |
| 2026-05-04 19:59 | 54.46109 | 11.19921 | 28357 ft | 428 kts | 216° |
| 2026-05-04 20:00 | 54.43580 | 11.17230 | 28836 ft | 426 kts | 216° |
| 2026-05-04 20:00 | 54.41055 | 11.14547 | 29355 ft | 424 kts | 216° |
| 2026-05-04 20:00 | 54.38560 | 11.11879 | 29897 ft | 422 kts | 217° |
| 2026-05-04 20:00 | 54.36078 | 11.09203 | 30365 ft | 419 kts | 217° |
| 2026-05-04 20:01 | 54.33608 | 11.06525 | 30759 ft | 419 kts | 217° |
| 2026-05-04 20:01 | 54.31151 | 11.03850 | 31116 ft | 419 kts | 217° |
| 2026-05-04 20:01 | 54.28691 | 11.01172 | 31469 ft | 419 kts | 217° |
| 2026-05-04 20:01 | 54.26253 | 10.98525 | 31825 ft | 420 kts | 217° |
| 2026-05-04 20:02 | 54.23788 | 10.95853 | 32155 ft | 420 kts | 217° |
| 2026-05-04 20:02 | 54.21312 | 10.93174 | 32496 ft | 421 kts | 217° |
| 2026-05-04 20:02 | 54.18832 | 10.90500 | 32857 ft | 422 kts | 217° |
| 2026-05-04 20:02 | 54.16348 | 10.87833 | 33229 ft | 422 kts | 217° |
| 2026-05-04 20:03 | 54.13890 | 10.85199 | 33601 ft | 422 kts | 217° |
| 2026-05-04 20:03 | 54.11362 | 10.82495 | 33989 ft | 423 kts | 217° |
| 2026-05-04 20:03 | 54.08873 | 10.79837 | 34316 ft | 423 kts | 217° |
| 2026-05-04 20:03 | 54.06374 | 10.77169 | 34634 ft | 424 kts | 217° |
| 2026-05-04 20:04 | 54.03870 | 10.74497 | 34933 ft | 425 kts | 216° |
| 2026-05-04 20:04 | 54.01366 | 10.71820 | 35221 ft | 425 kts | 216° |
| 2026-05-04 20:04 | 53.98886 | 10.69167 | 35495 ft | 427 kts | 216° |
| 2026-05-04 20:04 | 53.96368 | 10.66481 | 35776 ft | 427 kts | 216° |
| 2026-05-04 20:05 | 53.93840 | 10.63795 | 36057 ft | 428 kts | 216° |
| 2026-05-04 20:05 | 53.91307 | 10.61113 | 36337 ft | 429 kts | 215° |
| 2026-05-04 20:05 | 53.88860 | 10.58531 | 36596 ft | 429 kts | 215° |
| 2026-05-04 20:05 | 53.86318 | 10.55847 | 36865 ft | 430 kts | 215° |
| 2026-05-04 20:06 | 53.83787 | 10.53180 | 37119 ft | 430 kts | 215° |
| 2026-05-04 20:06 | 53.81235 | 10.50492 | 37372 ft | 431 kts | 215° |
| 2026-05-04 20:06 | 53.78678 | 10.47802 | 37610 ft | 431 kts | 214° |
| 2026-05-04 20:06 | 53.76118 | 10.45112 | 37843 ft | 432 kts | 214° |
| 2026-05-04 20:07 | 53.73550 | 10.42421 | 37980 ft | 434 kts | 214° |
| 2026-05-04 20:07 | 53.68424 | 10.37041 | 37989 ft | 434 kts | 214° |
| 2026-05-04 20:08 | 53.63292 | 10.31674 | 37983 ft | 434 kts | 214° |
| 2026-05-04 20:08 | 53.58176 | 10.26359 | 37996 ft | 434 kts | 214° |
| 2026-05-04 20:09 | 53.53098 | 10.21070 | 37994 ft | 432 kts | 214° |
| 2026-05-04 20:09 | 53.48013 | 10.15806 | 37992 ft | 431 kts | 214° |
| 2026-05-04 20:10 | 53.42877 | 10.10525 | 37974 ft | 431 kts | 214° |
| 2026-05-04 20:10 | 53.37790 | 10.05297 | 37986 ft | 431 kts | 214° |
| 2026-05-04 20:11 | 53.32674 | 10.00039 | 37997 ft | 432 kts | 214° |
| 2026-05-04 20:11 | 53.27553 | 9.94798 | 38002 ft | 431 kts | 213° |
| 2026-05-04 20:12 | 53.22448 | 9.89598 | 38004 ft | 430 kts | 213° |
| 2026-05-04 20:12 | 53.17319 | 9.84374 | 38002 ft | 429 kts | 213° |
| 2026-05-04 20:13 | 53.12218 | 9.79194 | 38001 ft | 429 kts | 213° |
| 2026-05-04 20:13 | 53.07119 | 9.74027 | 38000 ft | 429 kts | 213° |
| 2026-05-04 20:14 | 53.02048 | 9.68915 | 38000 ft | 429 kts | 213° |
| 2026-05-04 20:14 | 52.96942 | 9.63797 | 37999 ft | 428 kts | 213° |
| 2026-05-04 20:15 | 52.91843 | 9.58678 | 37993 ft | 428 kts | 213° |
| 2026-05-04 20:15 | 52.86743 | 9.53569 | 37972 ft | 428 kts | 213° |
| 2026-05-04 20:16 | 52.81645 | 9.48475 | 37988 ft | 428 kts | 213° |
| 2026-05-04 20:16 | 52.76525 | 9.43380 | 37992 ft | 428 kts | 213° |
| 2026-05-04 20:17 | 52.71442 | 9.38334 | 37992 ft | 428 kts | 213° |
| 2026-05-04 20:17 | 52.66330 | 9.33273 | 37993 ft | 428 kts | 213° |
| 2026-05-04 20:18 | 52.61221 | 9.28232 | 37983 ft | 428 kts | 213° |
| 2026-05-04 20:18 | 52.56106 | 9.23204 | 37984 ft | 428 kts | 213° |
| 2026-05-04 20:19 | 52.50994 | 9.18187 | 37984 ft | 428 kts | 213° |
| 2026-05-04 20:19 | 52.45864 | 9.13161 | 37983 ft | 428 kts | 213° |
| 2026-05-04 20:20 | 52.40746 | 9.08160 | 37968 ft | 428 kts | 213° |
| 2026-05-04 20:20 | 52.35627 | 9.03180 | 37974 ft | 428 kts | 212° |
| 2026-05-04 20:21 | 52.30518 | 8.98233 | 37979 ft | 429 kts | 212° |
| 2026-05-04 20:21 | 52.22807 | 8.90764 | 38002 ft | 429 kts | 212° |
| 2026-05-04 20:22 | 52.17716 | 8.85850 | 37981 ft | 429 kts | 212° |
| 2026-05-04 20:22 | 52.12567 | 8.80900 | 37990 ft | 429 kts | 212° |
| 2026-05-04 20:23 | 52.07456 | 8.75997 | 37997 ft | 428 kts | 212° |
| 2026-05-04 20:23 | 52.02433 | 8.70944 | 37334 ft | 429 kts | 220° |
| 2026-05-04 20:24 | 52.00303 | 8.67602 | 36743 ft | 423 kts | 231° |
| 2026-05-04 20:24 | 51.98696 | 8.63929 | 35941 ft | 424 kts | 240° |
| 2026-05-04 20:24 | 51.97533 | 8.59741 | 35365 ft | 420 kts | 250° |
| 2026-05-04 20:24 | 51.96808 | 8.55166 | 34558 ft | 416 kts | 256° |
| 2026-05-04 20:25 | 51.96232 | 8.50639 | 33309 ft | 415 kts | 256° |
| 2026-05-04 20:25 | 51.95645 | 8.46048 | 31917 ft | 416 kts | 255° |
| 2026-05-04 20:25 | 51.95058 | 8.41493 | 30799 ft | 411 kts | 255° |
| 2026-05-04 20:25 | 51.94473 | 8.36980 | 29675 ft | 405 kts | 255° |
| 2026-05-04 20:26 | 51.93893 | 8.32529 | 28472 ft | 400 kts | 255° |
| 2026-05-04 20:26 | 51.93314 | 8.28101 | 27346 ft | 404 kts | 255° |
| 2026-05-04 20:26 | 51.92719 | 8.23583 | 26218 ft | 411 kts | 255° |
| 2026-05-04 20:26 | 51.92124 | 8.19071 | 25143 ft | 419 kts | 256° |
| 2026-05-04 20:27 | 51.91509 | 8.14412 | 24073 ft | 424 kts | 256° |
| 2026-05-04 20:27 | 51.90893 | 8.09728 | 22926 ft | 424 kts | 256° |
| 2026-05-04 20:27 | 51.90286 | 8.05104 | 21731 ft | 419 kts | 256° |
| 2026-05-04 20:27 | 51.89678 | 8.00480 | 20583 ft | 414 kts | 256° |
| 2026-05-04 20:28 | 51.89078 | 7.95959 | 19504 ft | 409 kts | 256° |
| 2026-05-04 20:28 | 51.88479 | 7.91471 | 18585 ft | 407 kts | 255° |
| 2026-05-04 20:28 | 51.87873 | 7.86970 | 17640 ft | 409 kts | 255° |
| 2026-05-04 20:28 | 51.87267 | 7.82483 | 16810 ft | 407 kts | 255° |
| 2026-05-04 20:29 | 51.86661 | 7.78010 | 15982 ft | 406 kts | 256° |
| 2026-05-04 20:29 | 51.86055 | 7.73555 | 15188 ft | 405 kts | 255° |
| 2026-05-04 20:29 | 51.85200 | 7.69234 | 14442 ft | 403 kts | 246° |
| 2026-05-04 20:29 | 51.84009 | 7.65134 | 13687 ft | 401 kts | 243° |
| 2026-05-04 20:30 | 51.82802 | 7.61082 | 12919 ft | 398 kts | 243° |
| 2026-05-04 20:30 | 51.81606 | 7.57068 | 12196 ft | 394 kts | 243° |
| 2026-05-04 20:30 | 51.80425 | 7.53097 | 11472 ft | 389 kts | 243° |
| 2026-05-04 20:30 | 51.79286 | 7.49267 | 11181 ft | 374 kts | 243° |
| 2026-05-04 20:31 | 51.78190 | 7.45574 | 11058 ft | 353 kts | 243° |
| 2026-05-04 20:31 | 51.77153 | 7.42085 | 10930 ft | 335 kts | 243° |
| 2026-05-04 20:31 | 51.76148 | 7.38713 | 10809 ft | 319 kts | 243° |
| 2026-05-04 20:31 | 51.75221 | 7.35609 | 10690 ft | 305 kts | 243° |
| 2026-05-04 20:32 | 51.74317 | 7.32595 | 10564 ft | 293 kts | 243° |
| 2026-05-04 20:32 | 51.73442 | 7.29684 | 10339 ft | 285 kts | 243° |
| 2026-05-04 20:32 | 51.72581 | 7.26819 | 10103 ft | 283 kts | 243° |
| 2026-05-04 20:32 | 51.71721 | 7.23965 | 9888 ft | 286 kts | 242° |
| 2026-05-04 20:33 | 51.70630 | 7.21287 | 9762 ft | 286 kts | 227° |
| 2026-05-04 20:33 | 51.69669 | 7.19845 | 9674 ft | 284 kts | 216° |
| 2026-05-04 20:33 | 51.67343 | 7.17871 | 9503 ft | 283 kts | 201° |
| 2026-05-04 20:33 | 51.65509 | 7.16658 | 8987 ft | 286 kts | 201° |
| 2026-05-04 20:34 | 51.63703 | 7.15450 | 8581 ft | 282 kts | 202° |
| 2026-05-04 20:34 | 51.61880 | 7.14222 | 8149 ft | 281 kts | 202° |
| 2026-05-04 20:34 | 51.60109 | 7.13024 | 7740 ft | 277 kts | 202° |
| 2026-05-04 20:34 | 51.58361 | 7.11846 | 7144 ft | 273 kts | 202° |
| 2026-05-04 20:35 | 51.56626 | 7.10682 | 6566 ft | 268 kts | 202° |
| 2026-05-04 20:35 | 51.54916 | 7.09538 | 5898 ft | 265 kts | 202° |
| 2026-05-04 20:35 | 51.53786 | 7.08784 | 5422 ft | 264 kts | 202° |
| 2026-05-04 20:35 | 51.51532 | 7.07285 | 4643 ft | 257 kts | 202° |
| 2026-05-04 20:36 | 51.50457 | 7.06570 | 4293 ft | 252 kts | 202° |
| 2026-05-04 20:36 | 51.48877 | 7.05519 | 4037 ft | 234 kts | 202° |
| 2026-05-04 20:36 | 51.47447 | 7.04568 | 3985 ft | 212 kts | 202° |
| 2026-05-04 20:36 | 51.45699 | 7.03403 | 3927 ft | 204 kts | 202° |
| 2026-05-04 20:37 | 51.44811 | 7.02811 | 3865 ft | 203 kts | 203° |
| 2026-05-04 20:37 | 51.43529 | 7.01959 | 3776 ft | 202 kts | 202° |
| 2026-05-04 20:37 | 51.42218 | 7.01091 | 3679 ft | 198 kts | 203° |
| 2026-05-04 20:37 | 51.41008 | 7.00286 | 3619 ft | 187 kts | 202° |
| 2026-05-04 20:38 | 51.39926 | 6.99163 | 3438 ft | 184 kts | 224° |
| 2026-05-04 20:38 | 51.39132 | 6.97570 | 3221 ft | 181 kts | 231° |
| 2026-05-04 20:38 | 51.38424 | 6.96066 | 2989 ft | 157 kts | 231° |
| 2026-05-04 20:38 | 51.37805 | 6.94755 | 2791 ft | 139 kts | 231° |
| 2026-05-04 20:39 | 51.37242 | 6.93565 | 2610 ft | 131 kts | 231° |
| 2026-05-04 20:39 | 51.36699 | 6.92418 | 2447 ft | 127 kts | 231° |
| 2026-05-04 20:39 | 51.36170 | 6.91300 | 2276 ft | 125 kts | 231° |
| 2026-05-04 20:39 | 51.35646 | 6.90194 | 2111 ft | 125 kts | 231° |
| 2026-05-04 20:40 | 51.35122 | 6.89089 | 1924 ft | 125 kts | 231° |
| 2026-05-04 20:40 | 51.34597 | 6.87981 | 1766 ft | 125 kts | 231° |
| 2026-05-04 20:40 | 51.34067 | 6.86864 | 1596 ft | 126 kts | 231° |
| 2026-05-04 20:40 | 51.33546 | 6.85765 | 1432 ft | 126 kts | 231° |
| 2026-05-04 20:41 | 51.33013 | 6.84642 | 1257 ft | 127 kts | 231° |
| 2026-05-04 20:41 | 51.32477 | 6.83519 | 1109 ft | 127 kts | 231° |
| 2026-05-04 20:41 | 51.31941 | 6.82403 | 878 ft | 127 kts | 232° |
| 2026-05-04 20:41 | 51.31422 | 6.81267 | 748 ft | 127 kts | 231° |
| 2026-05-04 20:42 | 51.30874 | 6.80163 | 588 ft | 126 kts | 231° |
| 2026-05-04 20:42 | 51.30352 | 6.79038 | 398 ft | 125 kts | 232° |
| 2026-05-04 20:42 | 51.29823 | 6.77922 | 213 ft | 126 kts | 232° |
| 2026-05-04 20:42 | 51.29309 | 6.76846 | 132 ft | 108 kts | 233° |
| 2026-05-04 20:43 | 51.28970 | 6.76132 | 129 ft | 48 kts | 233° |
| 2026-05-04 20:43 | 51.28771 | 6.75768 | 126 ft | 41 kts | 217° |
| 2026-05-04 20:43 | 51.28535 | 6.75706 | 123 ft | 25 kts | 161° |
| 2026-05-04 20:43 | 51.28439 | 6.75803 | 124 ft | 0 kts | 142° |
| 2026-05-04 20:44 | 51.28434 | 6.75809 | 125 ft | 5 kts | 142° |
| 2026-05-04 20:45 | 51.28387 | 6.75867 | 125 ft | 8 kts | 142° |
| 2026-05-04 20:45 | 51.28356 | 6.75904 | 127 ft | 4 kts | 143° |
| 2026-05-04 20:45 | 51.28310 | 6.75959 | 128 ft | 15 kts | 142° |
| 2026-05-04 20:45 | 51.28223 | 6.76054 | 126 ft | 8 kts | 148° |
| 2026-05-04 20:46 | 51.28215 | 6.76063 | 128 ft | 0 kts | 148° |
| 2026-05-04 20:46 | 51.28206 | 6.76072 | 128 ft | 5 kts | 148° |
| 2026-05-04 20:47 | 51.28164 | 6.76086 | 129 ft | 5 kts | 205° |
| 2026-05-04 20:47 | 51.28142 | 6.76042 | 129 ft | 7 kts | 233° |
| 2026-05-04 20:47 | 51.28076 | 6.76045 | 126 ft | 14 kts | 163° |
| 2026-05-04 20:47 | 51.27979 | 6.76048 | 125 ft | 11 kts | 177° |
| 2026-05-04 20:48 | 51.27903 | 6.76048 | 128 ft | 10 kts | 179° |
| 2026-05-04 20:48 | 51.27852 | 6.76084 | 128 ft | 6 kts | 84° |
| 2026-05-04 20:48 | 51.27873 | 6.76149 | 128 ft | 8 kts | 59° |
| 2026-05-04 20:48 | 51.27901 | 6.76227 | 128 ft | 8 kts | 60° |
| 2026-05-04 20:49 | 51.27906 | 6.76243 | 125 ft | 0 kts | 61° |
| 2026-05-04 20:49 | 51.27907 | 6.76245 | 125 ft | 0 kts | 61° |